sensor_id;sensor_type;location;lat;lon;timestamp;pressure;altitude;pressure_sealevel;temperature;humidity
31403;BME280;18039;52.188;21.024;2023-05-07T00:00:05;77598.47;;;-141.45;100.00
31403;BME280;18039;52.188;21.024;2023-05-07T00:02:55;77594.44;;;-141.45;100.00
31403;BME280;18039;52.188;21.024;2023-05-07T00:05:23;77598.47;;;-141.45;100.00
31403;BME280;18039;52.188;21.024;2023-05-07T00:07:50;77594.44;;;-141.45;100.00
31403;BME280;18039;52.188;21.024;2023-05-07T00:10:19;77598.47;;;-141.45;100.00
31403;BME280;18039;52.188;21.024;2023-05-07T00:12:46;77590.38;;;-141.45;100.00
31403;BME280;18039;52.188;21.024;2023-05-07T00:15:14;77592.41;;;-141.45;100.00
31403;BME280;18039;52.188;21.024;2023-05-07T00:17:41;77598.47;;;-141.45;100.00
31403;BME280;18039;52.188;21.024;2023-05-07T00:20:09;77598.47;;;-141.45;100.00
31403;BME280;18039;52.188;21.024;2023-05-07T00:22:36;77602.53;;;-141.45;100.00
31403;BME280;18039;52.188;21.024;2023-05-07T00:25:05;77610.66;;;-141.45;100.00
31403;BME280;18039;52.188;21.024;2023-05-07T00:27:32;77614.69;;;-141.45;100.00
31403;BME280;18039;52.188;21.024;2023-05-07T00:29:59;77614.69;;;-141.45;100.00
31403;BME280;18039;52.188;21.024;2023-05-07T00:32:26;77618.75;;;-141.45;100.00
31403;BME280;18039;52.188;21.024;2023-05-07T00:34:54;77622.81;;;-141.45;100.00
31403;BME280;18039;52.188;21.024;2023-05-07T00:37:21;77622.81;;;-141.45;100.00
31403;BME280;18039;52.188;21.024;2023-05-07T00:39:49;77626.88;;;-141.45;100.00
31403;BME280;18039;52.188;21.024;2023-05-07T00:42:16;77628.91;;;-141.45;100.00
31403;BME280;18039;52.188;21.024;2023-05-07T00:44:44;77630.94;;;-141.45;100.00
31403;BME280;18039;52.188;21.024;2023-05-07T00:47:11;77630.94;;;-141.45;100.00
31403;BME280;18039;52.188;21.024;2023-05-07T00:49:41;77628.91;;;-141.45;100.00
31403;BME280;18039;52.188;21.024;2023-05-07T00:52:14;77626.88;;;-141.45;100.00
31403;BME280;18039;52.188;21.024;2023-05-07T00:54:43;77634.97;;;-141.45;100.00
31403;BME280;18039;52.188;21.024;2023-05-07T00:57:10;77639.03;;;-141.45;100.00
31403;BME280;18039;52.188;21.024;2023-05-07T00:59:38;77647.16;;;-141.45;100.00
31403;BME280;18039;52.188;21.024;2023-05-07T01:02:08;77655.25;;;-141.45;100.00
31403;BME280;18039;52.188;21.024;2023-05-07T01:04:35;77653.22;;;-141.45;100.00
31403;BME280;18039;52.188;21.024;2023-05-07T01:07:04;77659.31;;;-141.45;100.00
31403;BME280;18039;52.188;21.024;2023-05-07T01:09:32;77665.41;;;-141.45;100.00
31403;BME280;18039;52.188;21.024;2023-05-07T01:12:03;77661.34;;;-141.45;100.00
31403;BME280;18039;52.188;21.024;2023-05-07T01:14:31;77667.44;;;-141.45;100.00
31403;BME280;18039;52.188;21.024;2023-05-07T01:16:59;77679.59;;;-141.45;100.00
31403;BME280;18039;52.188;21.024;2023-05-07T01:19:28;77671.47;;;-141.45;100.00
31403;BME280;18039;52.188;21.024;2023-05-07T01:22:03;77671.47;;;-141.45;100.00
31403;BME280;18039;52.188;21.024;2023-05-07T01:24:38;77665.41;;;-141.45;100.00
31403;BME280;18039;52.188;21.024;2023-05-07T01:27:07;77663.38;;;-141.45;100.00
31403;BME280;18039;52.188;21.024;2023-05-07T01:29:35;77663.38;;;-141.45;100.00
31403;BME280;18039;52.188;21.024;2023-05-07T01:32:02;77667.44;;;-141.45;100.00
31403;BME280;18039;52.188;21.024;2023-05-07T01:34:32;77663.38;;;-141.45;100.00
31403;BME280;18039;52.188;21.024;2023-05-07T01:37:01;77667.44;;;-141.45;100.00
31403;BME280;18039;52.188;21.024;2023-05-07T01:39:29;77671.47;;;-141.45;100.00
31403;BME280;18039;52.188;21.024;2023-05-07T01:41:58;77679.59;;;-141.45;100.00
31403;BME280;18039;52.188;21.024;2023-05-07T01:44:27;77675.53;;;-141.45;100.00
31403;BME280;18039;52.188;21.024;2023-05-07T01:46:55;77679.59;;;-141.45;100.00
31403;BME280;18039;52.188;21.024;2023-05-07T01:49:23;77679.59;;;-141.45;100.00
31403;BME280;18039;52.188;21.024;2023-05-07T01:51:51;77679.59;;;-141.45;100.00
31403;BME280;18039;52.188;21.024;2023-05-07T01:54:18;77683.66;;;-141.45;100.00
31403;BME280;18039;52.188;21.024;2023-05-07T01:56:47;77683.66;;;-141.45;100.00
31403;BME280;18039;52.188;21.024;2023-05-07T01:59:16;77679.59;;;-141.45;100.00
31403;BME280;18039;52.188;21.024;2023-05-07T02:01:43;77683.66;;;-141.45;100.00
31403;BME280;18039;52.188;21.024;2023-05-07T02:04:11;77683.66;;;-141.45;100.00
31403;BME280;18039;52.188;21.024;2023-05-07T02:06:39;77679.59;;;-141.45;100.00
31403;BME280;18039;52.188;21.024;2023-05-07T02:09:08;77679.59;;;-141.45;100.00
31403;BME280;18039;52.188;21.024;2023-05-07T02:11:41;77677.56;;;-141.45;100.00
31403;BME280;18039;52.188;21.024;2023-05-07T02:14:08;77679.59;;;-141.45;100.00
31403;BME280;18039;52.188;21.024;2023-05-07T02:16:35;77679.59;;;-141.45;100.00
31403;BME280;18039;52.188;21.024;2023-05-07T02:19:03;77679.59;;;-141.45;100.00
31403;BME280;18039;52.188;21.024;2023-05-07T02:21:30;77679.59;;;-141.45;100.00
31403;BME280;18039;52.188;21.024;2023-05-07T02:23:57;77683.66;;;-141.45;100.00
31403;BME280;18039;52.188;21.024;2023-05-07T02:26:24;77687.69;;;-141.45;100.00
31403;BME280;18039;52.188;21.024;2023-05-07T02:28:53;77681.63;;;-141.45;100.00
31403;BME280;18039;52.188;21.024;2023-05-07T02:31:20;77687.69;;;-141.45;100.00
31403;BME280;18039;52.188;21.024;2023-05-07T02:33:48;77689.72;;;-141.45;100.00
31403;BME280;18039;52.188;21.024;2023-05-07T02:36:16;77695.81;;;-141.45;100.00
31403;BME280;18039;52.188;21.024;2023-05-07T02:38:52;77689.72;;;-141.45;100.00
31403;BME280;18039;52.188;21.024;2023-05-07T02:41:20;77687.69;;;-141.45;100.00
31403;BME280;18039;52.188;21.024;2023-05-07T02:43:48;77691.75;;;-141.45;100.00
31403;BME280;18039;52.188;21.024;2023-05-07T02:46:15;77689.72;;;-141.45;100.00
31403;BME280;18039;52.188;21.024;2023-05-07T02:48:47;77691.75;;;-141.45;100.00
31403;BME280;18039;52.188;21.024;2023-05-07T02:51:14;77695.81;;;-141.45;100.00
31403;BME280;18039;52.188;21.024;2023-05-07T02:53:42;77703.94;;;-141.45;100.00
31403;BME280;18039;52.188;21.024;2023-05-07T02:56:09;77695.81;;;-141.45;100.00
31403;BME280;18039;52.188;21.024;2023-05-07T02:58:37;77703.94;;;-141.45;100.00
31403;BME280;18039;52.188;21.024;2023-05-07T03:01:06;77703.94;;;-141.45;100.00
31403;BME280;18039;52.188;21.024;2023-05-07T03:03:47;77707.97;;;-141.45;100.00
31403;BME280;18039;52.188;21.024;2023-05-07T03:06:14;77703.94;;;-141.45;100.00
31403;BME280;18039;52.188;21.024;2023-05-07T03:08:42;77710.00;;;-141.45;100.00
31403;BME280;18039;52.188;21.024;2023-05-07T03:11:10;77707.97;;;-141.45;100.00
31403;BME280;18039;52.188;21.024;2023-05-07T03:13:37;77712.03;;;-141.45;100.00
31403;BME280;18039;52.188;21.024;2023-05-07T03:16:05;77707.97;;;-141.45;100.00
31403;BME280;18039;52.188;21.024;2023-05-07T03:18:32;77712.03;;;-141.45;100.00
31403;BME280;18039;52.188;21.024;2023-05-07T03:20:59;77699.88;;;-141.45;100.00
31403;BME280;18039;52.188;21.024;2023-05-07T03:23:27;77707.97;;;-141.45;100.00
31403;BME280;18039;52.188;21.024;2023-05-07T03:25:54;77707.97;;;-141.45;100.00
31403;BME280;18039;52.188;21.024;2023-05-07T03:28:21;77712.03;;;-141.45;100.00
31403;BME280;18039;52.188;21.024;2023-05-07T03:30:53;77716.09;;;-141.45;100.00
31403;BME280;18039;52.188;21.024;2023-05-07T03:33:21;77716.09;;;-141.45;100.00
31403;BME280;18039;52.188;21.024;2023-05-07T03:35:49;77712.03;;;-141.45;100.00
31403;BME280;18039;52.188;21.024;2023-05-07T03:38:21;77712.03;;;-141.45;100.00
31403;BME280;18039;52.188;21.024;2023-05-07T03:40:48;77722.19;;;-141.45;100.00
31403;BME280;18039;52.188;21.024;2023-05-07T03:43:16;77716.09;;;-141.45;100.00
31403;BME280;18039;52.188;21.024;2023-05-07T03:45:48;77724.19;;;-141.45;100.00
31403;BME280;18039;52.188;21.024;2023-05-07T03:48:20;77720.16;;;-141.45;100.00
31403;BME280;18039;52.188;21.024;2023-05-07T03:50:49;77724.19;;;-141.45;100.00
31403;BME280;18039;52.188;21.024;2023-05-07T03:53:18;77720.16;;;-141.45;100.00
31403;BME280;18039;52.188;21.024;2023-05-07T03:55:45;77728.25;;;-141.45;100.00
31403;BME280;18039;52.188;21.024;2023-05-07T03:58:12;77728.25;;;-141.45;100.00
31403;BME280;18039;52.188;21.024;2023-05-07T04:00:39;77724.19;;;-141.45;100.00
31403;BME280;18039;52.188;21.024;2023-05-07T04:03:21;77720.16;;;-141.45;100.00
31403;BME280;18039;52.188;21.024;2023-05-07T04:05:49;77720.16;;;-141.45;100.00
31403;BME280;18039;52.188;21.024;2023-05-07T04:08:16;77720.16;;;-141.45;100.00
31403;BME280;18039;52.188;21.024;2023-05-07T04:10:54;77728.25;;;-141.45;100.00
31403;BME280;18039;52.188;21.024;2023-05-07T04:13:23;77728.25;;;-141.45;100.00
31403;BME280;18039;52.188;21.024;2023-05-07T04:15:54;77734.34;;;-141.45;100.00
31403;BME280;18039;52.188;21.024;2023-05-07T04:18:23;77732.31;;;-141.45;100.00
31403;BME280;18039;52.188;21.024;2023-05-07T04:20:50;77732.31;;;-141.45;100.00
31403;BME280;18039;52.188;21.024;2023-05-07T04:23:18;77736.38;;;-141.45;100.00
31403;BME280;18039;52.188;21.024;2023-05-07T04:25:46;77724.19;;;-141.45;100.00
31403;BME280;18039;52.188;21.024;2023-05-07T04:28:21;77736.38;;;-141.45;100.00
31403;BME280;18039;52.188;21.024;2023-05-07T04:30:49;77732.31;;;-141.45;100.00
31403;BME280;18039;52.188;21.024;2023-05-07T04:33:16;77740.44;;;-141.45;100.00
31403;BME280;18039;52.188;21.024;2023-05-07T04:35:45;77736.38;;;-141.45;100.00
31403;BME280;18039;52.188;21.024;2023-05-07T04:38:14;77742.44;;;-141.45;100.00
31403;BME280;18039;52.188;21.024;2023-05-07T04:40:42;77740.44;;;-141.45;100.00
31403;BME280;18039;52.188;21.024;2023-05-07T04:43:13;77740.44;;;-141.45;100.00
31403;BME280;18039;52.188;21.024;2023-05-07T04:45:46;77748.53;;;-141.45;100.00
31403;BME280;18039;52.188;21.024;2023-05-07T04:48:14;77744.47;;;-141.45;100.00
31403;BME280;18039;52.188;21.024;2023-05-07T04:50:42;77744.47;;;-141.45;100.00
31403;BME280;18039;52.188;21.024;2023-05-07T04:53:11;77748.53;;;-141.45;100.00
31403;BME280;18039;52.188;21.024;2023-05-07T04:55:38;77746.50;;;-141.45;100.00
31403;BME280;18039;52.188;21.024;2023-05-07T04:58:06;77748.53;;;-141.45;100.00
31403;BME280;18039;52.188;21.024;2023-05-07T05:00:35;77748.53;;;-141.45;100.00
31403;BME280;18039;52.188;21.024;2023-05-07T05:03:08;77750.56;;;-141.45;100.00
31403;BME280;18039;52.188;21.024;2023-05-07T05:05:37;77744.47;;;-141.45;100.00
31403;BME280;18039;52.188;21.024;2023-05-07T05:08:05;77736.38;;;-141.45;100.00
31403;BME280;18039;52.188;21.024;2023-05-07T05:10:35;77746.50;;;-141.45;100.00
31403;BME280;18039;52.188;21.024;2023-05-07T05:13:02;77744.47;;;-141.45;100.00
31403;BME280;18039;52.188;21.024;2023-05-07T05:15:30;77742.44;;;-141.45;100.00
31403;BME280;18039;52.188;21.024;2023-05-07T05:18:00;77732.31;;;-141.45;100.00
31403;BME280;18039;52.188;21.024;2023-05-07T05:20:28;77720.16;;;-141.45;100.00
31403;BME280;18039;52.188;21.024;2023-05-07T05:22:55;77720.16;;;-141.45;100.00
31403;BME280;18039;52.188;21.024;2023-05-07T05:25:22;77720.16;;;-141.45;100.00
31403;BME280;18039;52.188;21.024;2023-05-07T05:27:49;77716.09;;;-141.45;100.00
31403;BME280;18039;52.188;21.024;2023-05-07T05:30:16;77695.81;;;-141.45;100.00
31403;BME280;18039;52.188;21.024;2023-05-07T05:32:45;77687.69;;;-141.45;100.00
31403;BME280;18039;52.188;21.024;2023-05-07T05:35:13;77667.44;;;-141.45;100.00
31403;BME280;18039;52.188;21.024;2023-05-07T05:37:42;77651.19;;;-141.45;100.00
31403;BME280;18039;52.188;21.024;2023-05-07T05:40:09;77647.16;;;-141.45;100.00
31403;BME280;18039;52.188;21.024;2023-05-07T05:42:37;77639.03;;;-141.45;100.00
31403;BME280;18039;52.188;21.024;2023-05-07T05:45:05;77624.84;;;-141.45;100.00
31403;BME280;18039;52.188;21.024;2023-05-07T05:47:33;77610.66;;;-141.45;100.00
31403;BME280;18039;52.188;21.024;2023-05-07T05:50:01;77610.66;;;-141.45;100.00
31403;BME280;18039;52.188;21.024;2023-05-07T05:52:28;77618.75;;;-141.45;99.34
31403;BME280;18039;52.188;21.024;2023-05-07T05:54:56;77614.69;;;-141.45;98.86
31403;BME280;18039;52.188;21.024;2023-05-07T05:57:24;77622.81;;;-141.45;98.63
31403;BME280;18039;52.188;21.024;2023-05-07T05:59:54;77626.88;;;-141.45;98.82
31403;BME280;18039;52.188;21.024;2023-05-07T06:02:23;77618.75;;;-141.45;98.71
31403;BME280;18039;52.188;21.024;2023-05-07T06:04:50;77606.59;;;-141.45;98.84
31403;BME280;18039;52.188;21.024;2023-05-07T06:07:20;77586.31;;;-141.45;98.78
31403;BME280;18039;52.188;21.024;2023-05-07T06:09:48;77586.31;;;-141.45;97.93
31403;BME280;18039;52.188;21.024;2023-05-07T06:12:16;77590.38;;;-141.45;97.11
31403;BME280;18039;52.188;21.024;2023-05-07T06:14:43;77582.25;;;-141.45;97.60
31403;BME280;18039;52.188;21.024;2023-05-07T06:17:11;77570.09;;;-141.45;97.11
31403;BME280;18039;52.188;21.024;2023-05-07T06:19:38;77553.88;;;-141.45;96.74
31403;BME280;18039;52.188;21.024;2023-05-07T06:22:07;77545.75;;;-141.45;95.05
31403;BME280;18039;52.188;21.024;2023-05-07T06:24:34;77561.97;;;-141.45;94.28
31403;BME280;18039;52.188;21.024;2023-05-07T06:27:04;77557.94;;;-141.45;94.47
31403;BME280;18039;52.188;21.024;2023-05-07T06:29:31;77537.66;;;-141.45;94.80
31403;BME280;18039;52.188;21.024;2023-05-07T06:32:08;77513.31;;;-141.45;94.17
31403;BME280;18039;52.188;21.024;2023-05-07T06:34:36;77495.06;;;-141.45;93.32
31403;BME280;18039;52.188;21.024;2023-05-07T06:37:04;77493.03;;;-141.45;91.24
31403;BME280;18039;52.188;21.024;2023-05-07T06:39:45;77489.00;;;-141.45;91.13
31403;BME280;18039;52.188;21.024;2023-05-07T06:42:12;77486.97;;;-141.45;90.12
31403;BME280;18039;52.188;21.024;2023-05-07T06:44:42;77484.94;;;-141.45;90.68
31403;BME280;18039;52.188;21.024;2023-05-07T06:47:14;77501.16;;;-141.45;90.00
31403;BME280;18039;52.188;21.024;2023-05-07T06:49:45;77501.16;;;-141.45;90.44
31403;BME280;18039;52.188;21.024;2023-05-07T06:52:16;77529.53;;;-141.45;90.58
31403;BME280;18039;52.188;21.024;2023-05-07T06:54:44;77525.47;;;-141.45;90.91
31403;BME280;18039;52.188;21.024;2023-05-07T06:57:14;77537.66;;;-141.45;90.85
31403;BME280;18039;52.188;21.024;2023-05-07T06:59:41;77533.59;;;-141.45;91.64
31403;BME280;18039;52.188;21.024;2023-05-07T07:02:10;77525.47;;;-141.45;91.17
31403;BME280;18039;52.188;21.024;2023-05-07T07:04:37;77533.59;;;-141.45;91.13
31403;BME280;18039;52.188;21.024;2023-05-07T07:07:09;77525.47;;;-141.45;91.65
31403;BME280;18039;52.188;21.024;2023-05-07T07:09:38;77517.38;;;-141.45;90.19
31403;BME280;18039;52.188;21.024;2023-05-07T07:12:06;77513.31;;;-141.45;90.25
31403;BME280;18039;52.188;21.024;2023-05-07T07:14:36;77507.25;;;-141.45;90.59
31403;BME280;18039;52.188;21.024;2023-05-07T07:17:03;77501.16;;;-141.45;90.42
31403;BME280;18039;52.188;21.024;2023-05-07T07:19:32;77493.03;;;-141.45;89.64
31403;BME280;18039;52.188;21.024;2023-05-07T07:22:02;77489.00;;;-141.45;89.78
31403;BME280;18039;52.188;21.024;2023-05-07T07:24:29;77468.72;;;-141.45;89.85
31403;BME280;18039;52.188;21.024;2023-05-07T07:27:00;77472.78;;;-141.45;89.00
31403;BME280;18039;52.188;21.024;2023-05-07T07:29:28;77464.66;;;-141.45;89.93
31403;BME280;18039;52.188;21.024;2023-05-07T07:31:56;77468.72;;;-141.45;87.76
31403;BME280;18039;52.188;21.024;2023-05-07T07:34:24;77464.66;;;-141.45;87.41
31403;BME280;18039;52.188;21.024;2023-05-07T07:36:51;77460.59;;;-141.45;87.59
31403;BME280;18039;52.188;21.024;2023-05-07T07:39:19;77460.59;;;-141.45;86.46
31403;BME280;18039;52.188;21.024;2023-05-07T07:41:49;77450.47;;;-141.45;86.83
31403;BME280;18039;52.188;21.024;2023-05-07T07:44:18;77428.16;;;-141.45;87.02
31403;BME280;18039;52.188;21.024;2023-05-07T07:46:49;77411.94;;;-141.45;86.07
31403;BME280;18039;52.188;21.024;2023-05-07T07:49:18;77395.72;;;-141.45;86.30
31403;BME280;18039;52.188;21.024;2023-05-07T07:51:46;77391.66;;;-141.45;86.22
31403;BME280;18039;52.188;21.024;2023-05-07T07:54:15;77387.59;;;-141.45;84.42
31403;BME280;18039;52.188;21.024;2023-05-07T07:56:43;77379.50;;;-141.45;83.99
31403;BME280;18039;52.188;21.024;2023-05-07T07:59:12;77379.50;;;-141.45;82.29
31403;BME280;18039;52.188;21.024;2023-05-07T08:01:41;77375.44;;;-141.45;82.28
31403;BME280;18039;52.188;21.024;2023-05-07T08:04:08;77379.50;;;-141.45;82.50
31403;BME280;18039;52.188;21.024;2023-05-07T08:06:39;77387.59;;;-141.45;82.35
31403;BME280;18039;52.188;21.024;2023-05-07T08:09:08;77399.78;;;-141.45;81.26
31403;BME280;18039;52.188;21.024;2023-05-07T08:11:38;77379.50;;;-141.45;81.82
31403;BME280;18039;52.188;21.024;2023-05-07T08:14:07;77359.22;;;-141.45;82.22
31403;BME280;18039;52.188;21.024;2023-05-07T08:16:35;77371.38;;;-141.45;81.17
31403;BME280;18039;52.188;21.024;2023-05-07T08:19:02;77373.41;;;-141.45;80.67
31403;BME280;18039;52.188;21.024;2023-05-07T08:21:30;77343.00;;;-141.45;80.42
31403;BME280;18039;52.188;21.024;2023-05-07T08:24:01;77347.06;;;-141.45;79.01
31403;BME280;18039;52.188;21.024;2023-05-07T08:26:30;77334.91;;;-141.45;78.58
31403;BME280;18039;52.188;21.024;2023-05-07T08:28:57;77340.97;;;-141.45;77.70
31403;BME280;18039;52.188;21.024;2023-05-07T08:31:25;77351.13;;;-141.45;80.43
31403;BME280;18039;52.188;21.024;2023-05-07T08:33:53;77334.91;;;-141.45;80.73
31403;BME280;18039;52.188;21.024;2023-05-07T08:36:20;77318.66;;;-141.45;79.55
31403;BME280;18039;52.188;21.024;2023-05-07T08:38:47;77316.66;;;-141.45;79.04
31403;BME280;18039;52.188;21.024;2023-05-07T08:41:17;77310.56;;;-141.45;77.29
31403;BME280;18039;52.188;21.024;2023-05-07T08:43:48;77334.91;;;-141.45;76.78
31403;BME280;18039;52.188;21.024;2023-05-07T08:46:20;77330.84;;;-141.45;75.88
31403;BME280;18039;52.188;21.024;2023-05-07T08:48:50;77328.81;;;-141.45;75.73
31403;BME280;18039;52.188;21.024;2023-05-07T08:51:20;77318.66;;;-141.45;75.52
31403;BME280;18039;52.188;21.024;2023-05-07T08:53:49;77302.44;;;-141.45;73.39
31403;BME280;18039;52.188;21.024;2023-05-07T08:56:23;77294.34;;;-141.45;72.86
31403;BME280;18039;52.188;21.024;2023-05-07T08:58:52;77290.28;;;-141.45;71.83
31403;BME280;18039;52.188;21.024;2023-05-07T09:01:24;77322.72;;;-141.45;71.72
31403;BME280;18039;52.188;21.024;2023-05-07T09:03:53;77326.78;;;-141.45;72.42
31403;BME280;18039;52.188;21.024;2023-05-07T09:06:22;77343.00;;;-141.45;72.02
31403;BME280;18039;52.188;21.024;2023-05-07T09:08:51;77367.34;;;-141.45;73.54
31403;BME280;18039;52.188;21.024;2023-05-07T09:11:23;77371.38;;;-141.45;73.45
31403;BME280;18039;52.188;21.024;2023-05-07T09:13:56;77399.78;;;-141.45;75.03
31403;BME280;18039;52.188;21.024;2023-05-07T09:16:26;77347.06;;;-141.45;74.22
31403;BME280;18039;52.188;21.024;2023-05-07T09:18:56;77326.78;;;-141.45;73.75
31403;BME280;18039;52.188;21.024;2023-05-07T09:21:26;77330.84;;;-141.45;74.28
31403;BME280;18039;52.188;21.024;2023-05-07T09:23:56;77296.38;;;-141.45;74.03
31403;BME280;18039;52.188;21.024;2023-05-07T09:26:33;77282.19;;;-141.45;73.52
31403;BME280;18039;52.188;21.024;2023-05-07T09:29:03;77249.75;;;-141.45;69.85
31403;BME280;18039;52.188;21.024;2023-05-07T09:31:30;77245.69;;;-141.45;67.68
31403;BME280;18039;52.188;21.024;2023-05-07T09:33:58;77241.63;;;-141.45;67.96
31403;BME280;18039;52.188;21.024;2023-05-07T09:36:28;77237.56;;;-141.45;67.66
31403;BME280;18039;52.188;21.024;2023-05-07T09:38:59;77221.34;;;-141.45;68.15
31403;BME280;18039;52.188;21.024;2023-05-07T09:41:30;77207.16;;;-141.45;66.52
31403;BME280;18039;52.188;21.024;2023-05-07T09:44:09;77219.31;;;-141.45;65.40
31403;BME280;18039;52.188;21.024;2023-05-07T09:46:43;77253.78;;;-141.45;65.30
31403;BME280;18039;52.188;21.024;2023-05-07T09:49:23;77251.75;;;-141.45;66.62
31403;BME280;18039;52.188;21.024;2023-05-07T09:52:00;77241.63;;;-141.45;66.30
31403;BME280;18039;52.188;21.024;2023-05-07T09:54:33;77233.53;;;-141.45;67.04
31403;BME280;18039;52.188;21.024;2023-05-07T09:57:03;77259.88;;;-141.45;65.93
31403;BME280;18039;52.188;21.024;2023-05-07T09:59:34;77265.97;;;-141.45;66.15
31403;BME280;18039;52.188;21.024;2023-05-07T10:02:05;77286.22;;;-141.45;66.78
31403;BME280;18039;52.188;21.024;2023-05-07T10:04:40;77318.66;;;-141.45;68.26
31403;BME280;18039;52.188;21.024;2023-05-07T10:07:09;77334.91;;;-141.45;67.58
31403;BME280;18039;52.188;21.024;2023-05-07T10:09:38;77336.91;;;-141.45;67.94
31403;BME280;18039;52.188;21.024;2023-05-07T10:12:11;77324.75;;;-141.45;66.63
31403;BME280;18039;52.188;21.024;2023-05-07T10:14:39;77314.63;;;-141.45;65.68
31403;BME280;18039;52.188;21.024;2023-05-07T10:17:07;77265.97;;;-141.45;65.62
31403;BME280;18039;52.188;21.024;2023-05-07T10:19:35;77249.75;;;-141.45;64.32
31403;BME280;18039;52.188;21.024;2023-05-07T10:22:05;77274.06;;;-141.45;65.08
31403;BME280;18039;52.188;21.024;2023-05-07T10:24:38;77304.47;;;-141.45;65.58
31403;BME280;18039;52.188;21.024;2023-05-07T10:27:15;77318.66;;;-141.45;66.32
31403;BME280;18039;52.188;21.024;2023-05-07T10:30:05;77338.94;;;-141.45;66.04
31403;BME280;18039;52.188;21.024;2023-05-07T10:32:40;77349.09;;;-141.45;65.58
31403;BME280;18039;52.188;21.024;2023-05-07T10:35:18;77338.94;;;-141.45;66.14
31403;BME280;18039;52.188;21.024;2023-05-07T10:37:48;77334.91;;;-141.45;66.63
31403;BME280;18039;52.188;21.024;2023-05-07T10:40:20;77314.63;;;-141.45;66.69
31403;BME280;18039;52.188;21.024;2023-05-07T10:42:56;77282.19;;;-141.45;66.60
31403;BME280;18039;52.188;21.024;2023-05-07T10:45:26;77286.22;;;-141.45;65.45
31403;BME280;18039;52.188;21.024;2023-05-07T10:48:15;77330.84;;;-141.45;65.11
31403;BME280;18039;52.188;21.024;2023-05-07T10:51:19;77343.00;;;-141.45;65.29
31403;BME280;18039;52.188;21.024;2023-05-07T10:56:52;77318.66;;;-141.45;65.21
31403;BME280;18039;52.188;21.024;2023-05-07T10:59:32;77306.50;;;-141.45;65.40
31403;BME280;18039;52.188;21.024;2023-05-07T11:02:13;77290.28;;;-141.45;64.63
31403;BME280;18039;52.188;21.024;2023-05-07T11:07:57;77278.13;;;-141.45;64.00
31403;BME280;18039;52.188;21.024;2023-05-07T11:10:50;77270.00;;;-141.45;63.96
31403;BME280;18039;52.188;21.024;2023-05-07T11:13:48;77245.69;;;-141.45;64.38
31403;BME280;18039;52.188;21.024;2023-05-07T11:16:36;77233.53;;;-141.45;63.54
31403;BME280;18039;52.188;21.024;2023-05-07T11:19:50;77209.19;;;-141.45;62.85
31403;BME280;18039;52.188;21.024;2023-05-07T11:22:54;77180.81;;;-141.45;61.88
31403;BME280;18039;52.188;21.024;2023-05-07T11:25:38;77176.75;;;-141.45;60.05
31403;BME280;18039;52.188;21.024;2023-05-07T11:28:17;77207.16;;;-141.45;60.91
31403;BME280;18039;52.188;21.024;2023-05-07T11:31:03;77239.59;;;-141.45;62.57
31403;BME280;18039;52.188;21.024;2023-05-07T11:33:31;77270.00;;;-141.45;63.79
31403;BME280;18039;52.188;21.024;2023-05-07T11:36:03;77241.63;;;-141.45;63.25
31403;BME280;18039;52.188;21.024;2023-05-07T11:38:37;77209.19;;;-141.45;62.25
31403;BME280;18039;52.188;21.024;2023-05-07T11:41:07;77180.81;;;-141.45;61.70
31403;BME280;18039;52.188;21.024;2023-05-07T11:43:34;77164.59;;;-141.45;60.89
31403;BME280;18039;52.188;21.024;2023-05-07T11:46:10;77140.25;;;-141.45;60.46
31403;BME280;18039;52.188;21.024;2023-05-07T11:48:39;77091.59;;;-141.45;60.02
31403;BME280;18039;52.188;21.024;2023-05-07T11:51:06;77095.66;;;-141.45;59.00
31403;BME280;18039;52.188;21.024;2023-05-07T11:53:41;77107.81;;;-141.45;59.71
31403;BME280;18039;52.188;21.024;2023-05-07T11:56:13;77132.16;;;-141.45;59.52
31403;BME280;18039;52.188;21.024;2023-05-07T11:58:42;77150.41;;;-141.45;60.36
31403;BME280;18039;52.188;21.024;2023-05-07T12:01:10;77184.84;;;-141.45;59.41
31403;BME280;18039;52.188;21.024;2023-05-07T12:03:43;77188.91;;;-141.45;59.41
31403;BME280;18039;52.188;21.024;2023-05-07T12:06:15;77184.84;;;-141.45;59.74
31403;BME280;18039;52.188;21.024;2023-05-07T12:08:47;77203.09;;;-141.45;60.24
31403;BME280;18039;52.188;21.024;2023-05-07T12:11:23;77221.34;;;-141.45;60.73
31403;BME280;18039;52.188;21.024;2023-05-07T12:13:59;77221.34;;;-141.45;62.15
31403;BME280;18039;52.188;21.024;2023-05-07T12:16:39;77209.19;;;-141.45;63.21
31403;BME280;18039;52.188;21.024;2023-05-07T12:19:16;77197.03;;;-141.45;62.15
31403;BME280;18039;52.188;21.024;2023-05-07T12:21:48;77192.97;;;-141.45;61.10
31403;BME280;18039;52.188;21.024;2023-05-07T12:24:23;77192.97;;;-141.45;60.79
31403;BME280;18039;52.188;21.024;2023-05-07T12:27:02;77176.75;;;-141.45;60.16
31403;BME280;18039;52.188;21.024;2023-05-07T12:29:39;77166.59;;;-141.45;60.93
31403;BME280;18039;52.188;21.024;2023-05-07T12:32:16;77164.59;;;-141.45;59.46
31403;BME280;18039;52.188;21.024;2023-05-07T12:34:45;77180.81;;;-141.45;59.67
31403;BME280;18039;52.188;21.024;2023-05-07T12:37:12;77148.38;;;-141.45;59.29
31403;BME280;18039;52.188;21.024;2023-05-07T12:39:49;77124.03;;;-141.45;58.14
31403;BME280;18039;52.188;21.024;2023-05-07T12:42:20;77111.88;;;-141.45;58.26
31403;BME280;18039;52.188;21.024;2023-05-07T12:44:52;77128.09;;;-141.45;58.16
31403;BME280;18039;52.188;21.024;2023-05-07T12:47:20;77111.88;;;-141.45;57.87